Bedford, Michigan
Current Conditions -  °F | °C
As of 1:53 PM on Friday 21 Nov 2014 (Local Time) from KBTL Reporting Station
Clear Clear  
Wind Chill: -8°   Ceiling: Unl
Heat Index: -3°   Visibility: 10mi
Dew Point: -11°   Wind: 9mph
Humidity: 58%   Direction: 210°SSW
Pressure: 30.41"   Gusts: NA
Location:  42.4°N, 85.23°W
Report Text: KBTL 211853Z 21008KT 10SM CLR M03/M11 A3041 RMK AO2 SLP314 T10331106
Loading
Personal Weather Stations






























Interactive Weather Map New forecast layout! Learn more

10-Day Weather Forecast

Advertisements
Track Severe Weather on mobile